createdAt,value
2022-09-02T00:01:27.793Z,4.75
2022-09-02T00:04:07.866Z,4.03
2022-09-02T00:06:35.127Z,3.85
2022-09-02T00:09:04.821Z,4.55
2022-09-02T00:11:33.545Z,4.65
2022-09-02T00:14:03.841Z,4.07
2022-09-02T00:16:33.235Z,4.35
2022-09-02T00:19:02.582Z,5.38
2022-09-02T00:21:31.524Z,4.43
2022-09-02T00:23:58.595Z,4.18
2022-09-02T00:26:26.034Z,4.70
2022-09-02T00:28:55.849Z,4.72
2022-09-02T00:31:25.195Z,4.63
2022-09-02T00:33:53.539Z,4.43
2022-09-02T00:36:21.552Z,4.20
2022-09-02T00:38:48.898Z,4.70
2022-09-02T00:41:16.005Z,4.13
2022-09-02T00:43:55.188Z,4.57
2022-09-02T00:46:25.018Z,4.05
2022-09-02T00:49:07.098Z,4.60
2022-09-02T00:51:41.382Z,3.92
2022-09-02T00:54:09.444Z,4.55
2022-09-02T00:56:38.553Z,4.38
2022-09-02T00:59:06.970Z,4.45
2022-09-02T01:01:33.939Z,4.30
2022-09-02T01:04:00.883Z,4.38
2022-09-02T01:06:31.736Z,4.55
2022-09-02T01:09:08.597Z,4.13
2022-09-02T01:11:47.962Z,4.30
2022-09-02T01:14:16.995Z,4.32
2022-09-02T01:16:50.397Z,4.70
2022-09-02T01:19:23.022Z,4.65
2022-09-02T01:21:55.115Z,4.47
2022-09-02T01:24:26.468Z,4.63
2022-09-02T01:26:56.700Z,4.57
2022-09-02T01:29:24.565Z,4.63
2022-09-02T01:31:51.824Z,4.95
2022-09-02T01:34:18.736Z,4.40
2022-09-02T01:36:46.678Z,4.10
2022-09-02T01:39:14.241Z,4.53
2022-09-02T01:41:41.675Z,4.20
2022-09-02T01:44:10.439Z,4.10
2022-09-02T01:46:37.966Z,4.38
2022-09-02T01:49:04.911Z,4.03
2022-09-02T01:51:32.131Z,4.28
2022-09-02T01:54:00.509Z,4.30
2022-09-02T01:56:27.600Z,4.10
2022-09-02T01:58:55.102Z,6.55
2022-09-02T02:01:21.984Z,3.92
2022-09-02T02:03:49.582Z,4.38
2022-09-02T02:06:18.044Z,3.55
2022-09-02T02:08:46.347Z,3.50
2022-09-02T02:11:20.003Z,3.80
2022-09-02T02:13:50.462Z,3.80
2022-09-02T02:16:21.505Z,3.70
2022-09-02T02:18:48.600Z,3.70
2022-09-02T02:21:15.425Z,5.85
2022-09-02T02:23:42.393Z,3.55
2022-09-02T02:26:09.364Z,3.50
2022-09-02T02:28:37.166Z,3.88
2022-09-02T02:31:05.983Z,4.10
2022-09-02T02:33:36.564Z,3.25
2022-09-02T02:36:07.693Z,3.75
2022-09-02T02:38:36.900Z,3.53
2022-09-02T02:41:06.477Z,3.72
2022-09-02T02:43:36.153Z,3.40
2022-09-02T02:46:05.445Z,3.58
2022-09-02T02:48:35.084Z,3.97
2022-09-02T02:51:02.956Z,3.50
2022-09-02T02:53:31.348Z,4.43
2022-09-02T02:55:59.598Z,4.13
2022-09-02T02:58:27.191Z,3.55
2022-09-02T03:00:57.881Z,3.75
2022-09-02T03:03:25.027Z,4.10
2022-09-02T03:05:55.039Z,3.83
2022-09-02T03:08:22.996Z,3.38
2022-09-02T03:10:53.920Z,4.88
2022-09-02T03:13:24.204Z,4.53
2022-09-02T03:15:51.539Z,4.25
2022-09-02T03:18:19.616Z,4.05
2022-09-02T03:20:51.880Z,4.00
2022-09-02T03:23:19.250Z,4.25
2022-09-02T03:25:48.931Z,3.88
2022-09-02T03:28:28.813Z,4.40
2022-09-02T03:30:57.527Z,4.28
2022-09-02T03:33:26.388Z,4.57
2022-09-02T03:35:54.018Z,3.90
2022-09-02T03:38:21.547Z,3.55
2022-09-02T03:40:48.560Z,3.90
2022-09-02T03:43:15.522Z,3.70
2022-09-02T03:45:42.684Z,3.78
2022-09-02T03:48:14.342Z,3.95
2022-09-02T03:50:43.929Z,3.90
2022-09-02T03:53:19.637Z,4.15
2022-09-02T03:55:50.629Z,4.75
2022-09-02T03:58:19.869Z,4.60
2022-09-02T04:00:53.700Z,5.05
2022-09-02T04:03:22.751Z,5.60
2022-09-02T04:05:51.332Z,5.22
2022-09-02T04:08:19.825Z,4.78
2022-09-02T04:10:47.472Z,4.47
2022-09-02T04:13:14.278Z,3.90
2022-09-02T04:15:48.034Z,4.15
2022-09-02T04:18:17.527Z,4.00
2022-09-02T04:20:44.966Z,3.55
2022-09-02T04:23:14.213Z,4.25
2022-09-02T04:25:44.239Z,4.07
2022-09-02T04:28:13.192Z,4.30
2022-09-02T04:30:41.707Z,4.07
2022-09-02T04:33:09.862Z,3.72
2022-09-02T04:35:44.984Z,4.00
2022-09-02T04:38:14.891Z,4.65
2022-09-02T04:40:45.478Z,3.92
2022-09-02T04:43:13.822Z,4.07
2022-09-02T04:45:46.165Z,3.85
2022-09-02T04:48:15.392Z,4.68
2022-09-02T04:50:43.166Z,4.82
2022-09-02T04:53:10.885Z,4.10
2022-09-02T04:55:41.872Z,4.00
2022-09-02T04:58:11.357Z,4.25
2022-09-02T05:00:39.892Z,4.07
2022-09-02T05:03:11.787Z,4.90
2022-09-02T05:05:40.651Z,4.35
2022-09-02T05:08:10.083Z,4.40
2022-09-02T05:10:40.428Z,5.53
2022-09-02T05:13:07.269Z,4.20
2022-09-02T05:15:40.739Z,4.35
2022-09-02T05:18:08.641Z,4.50
2022-09-02T05:20:39.566Z,4.32
2022-09-02T05:23:07.108Z,4.78
2022-09-02T05:25:34.043Z,5.50
2022-09-02T05:28:00.933Z,3.47
2022-09-02T05:30:27.829Z,4.30
2022-09-02T05:32:55.274Z,3.92
2022-09-02T05:35:22.235Z,3.97
2022-09-02T05:37:54.502Z,3.80
2022-09-02T05:40:25.287Z,3.60
2022-09-02T05:42:56.653Z,3.55
2022-09-02T05:45:24.058Z,3.90
2022-09-02T05:47:51.937Z,3.90
2022-09-02T05:50:20.539Z,4.18
2022-09-02T05:52:51.539Z,3.90
2022-09-02T05:55:19.932Z,3.95
2022-09-02T05:57:47.087Z,3.70
2022-09-02T06:00:17.974Z,3.50
2022-09-02T06:02:55.659Z,4.85
2022-09-02T06:05:30.910Z,3.92
2022-09-02T06:08:08.063Z,3.80
2022-09-02T06:10:41.626Z,3.88
2022-09-02T06:13:11.685Z,4.78
2022-09-02T06:15:45.269Z,3.78
2022-09-02T06:18:15.379Z,3.50
2022-09-02T06:20:48.269Z,4.35
2022-09-02T06:23:17.331Z,3.50
2022-09-02T06:25:48.121Z,4.65
2022-09-02T06:28:16.136Z,4.68
2022-09-02T06:30:48.405Z,3.70
2022-09-02T06:33:17.532Z,3.10
2022-09-02T06:35:46.404Z,3.50
2022-09-02T06:38:16.719Z,3.80
2022-09-02T06:40:53.238Z,3.72
2022-09-02T06:43:28.288Z,3.60
2022-09-02T06:46:20.357Z,3.33
2022-09-02T06:48:50.951Z,4.47
2022-09-02T06:51:23.409Z,3.65
2022-09-02T06:53:51.044Z,4.10
2022-09-02T06:56:18.724Z,3.30
2022-09-02T06:58:45.913Z,4.05
2022-09-02T07:01:26.572Z,4.03
2022-09-02T07:04:12.633Z,3.50
2022-09-02T07:06:44.082Z,4.90
2022-09-02T07:09:15.596Z,3.85
2022-09-02T07:11:47.811Z,3.50
2022-09-02T07:14:17.984Z,3.72
2022-09-02T07:16:50.776Z,7.90
2022-09-02T07:19:20.799Z,3.95
2022-09-02T07:21:49.535Z,3.83
2022-09-02T07:24:17.817Z,3.78
2022-09-02T07:26:45.680Z,3.92
2022-09-02T07:29:14.735Z,3.90
2022-09-02T07:31:44.241Z,4.13
2022-09-02T07:34:11.786Z,3.88
2022-09-02T07:36:39.213Z,4.07
2022-09-02T07:39:08.711Z,4.55
2022-09-02T07:41:37.950Z,4.55
2022-09-02T07:44:07.121Z,4.68
2022-09-02T07:46:35.569Z,4.75
2022-09-02T07:49:09.297Z,5.40
2022-09-02T07:51:40.474Z,4.85
2022-09-02T07:54:10.089Z,5.40
2022-09-02T07:56:37.272Z,6.00
2022-09-02T07:59:06.334Z,5.85
2022-09-02T08:01:34.413Z,6.10
2022-09-02T08:04:04.233Z,6.60
2022-09-02T08:06:35.401Z,6.68
2022-09-02T08:09:11.275Z,6.35
2022-09-02T08:11:44.388Z,7.53
2022-09-02T08:14:19.770Z,6.78
2022-09-02T08:16:48.754Z,6.45
2022-09-02T08:19:15.811Z,6.50
2022-09-02T08:21:42.711Z,6.53
2022-09-02T08:24:10.306Z,6.78
2022-09-02T08:26:37.380Z,6.60
2022-09-02T08:29:06.766Z,6.78
2022-09-02T08:31:34.353Z,7.55
2022-09-02T08:34:01.413Z,8.73
2022-09-02T08:36:28.820Z,7.55
2022-09-02T08:38:55.934Z,7.10
2022-09-02T08:41:33.685Z,7.50
2022-09-02T08:44:01.942Z,7.40
2022-09-02T08:46:33.059Z,7.47
2022-09-02T08:49:04.693Z,7.68
2022-09-02T08:51:37.898Z,8.27
2022-09-02T08:54:32.368Z,8.13
2022-09-02T08:56:59.841Z,8.23
2022-09-02T08:59:28.284Z,8.50
2022-09-02T09:02:21.675Z,9.50
2022-09-02T09:04:55.477Z,9.23
2022-09-02T09:07:29.545Z,9.63
2022-09-02T09:10:08.666Z,9.63
2022-09-02T09:12:53.905Z,10.23
2022-09-02T09:15:37.745Z,10.50
2022-09-02T09:18:11.893Z,10.40
2022-09-02T09:20:42.955Z,9.93
2022-09-02T09:23:23.198Z,10.45
2022-09-02T09:25:55.526Z,11.73
2022-09-02T09:28:22.497Z,12.02
2022-09-02T09:30:50.337Z,11.27
2022-09-02T09:33:22.270Z,10.75
2022-09-02T09:35:54.630Z,12.13
2022-09-02T09:38:33.096Z,12.18
2022-09-02T09:41:17.679Z,11.60
2022-09-02T09:43:44.527Z,12.25
2022-09-02T09:46:27.709Z,12.40
2022-09-02T09:48:54.975Z,12.45
2022-09-02T09:51:21.809Z,12.95
2022-09-02T09:53:48.763Z,12.75
2022-09-02T09:56:18.676Z,13.85
2022-09-02T09:58:48.735Z,13.18
2022-09-02T10:01:21.726Z,12.80
2022-09-02T10:04:06.713Z,12.80
2022-09-02T10:06:42.514Z,12.90
2022-09-02T10:09:15.535Z,13.23
2022-09-02T10:12:06.346Z,13.00
2022-09-02T10:14:38.089Z,12.68
2022-09-02T10:17:40.693Z,12.77
2022-09-02T10:20:28.715Z,13.35
2022-09-02T10:23:03.399Z,13.35
2022-09-02T10:25:48.722Z,13.25
2022-09-02T10:28:18.376Z,12.68
2022-09-02T10:31:00.893Z,13.45
2022-09-02T10:33:37.310Z,12.35
2022-09-02T10:36:19.789Z,12.68
2022-09-02T10:38:50.679Z,12.88
2022-09-02T10:44:26.992Z,13.05
2022-09-02T10:47:01.406Z,12.93
2022-09-02T10:49:49.582Z,13.20
2022-09-02T10:52:19.312Z,12.55
2022-09-02T10:55:16.963Z,13.52
2022-09-02T10:57:53.748Z,12.35
2022-09-02T11:00:23.594Z,12.57
2022-09-02T11:03:34.428Z,12.73
2022-09-02T11:06:31.721Z,12.68
2022-09-02T11:09:23.958Z,12.45
2022-09-02T11:12:17.378Z,11.68
2022-09-02T11:15:11.957Z,12.50
2022-09-02T11:17:48.963Z,12.20
2022-09-02T11:20:47.345Z,12.32
2022-09-02T11:23:29.583Z,13.00
2022-09-02T11:26:35.695Z,12.60
2022-09-02T11:29:14.294Z,12.07
2022-09-02T11:31:45.864Z,12.75
2022-09-02T11:34:35.440Z,13.30
2022-09-02T11:37:08.980Z,13.07
2022-09-02T11:39:58.982Z,12.35
2022-09-02T11:42:53.309Z,11.57
2022-09-02T11:45:36.602Z,12.40
2022-09-02T11:48:14.512Z,11.75
2022-09-02T11:51:03.029Z,12.30
2022-09-02T11:53:42.525Z,12.07
2022-09-02T11:56:18.174Z,12.55
2022-09-02T11:58:49.644Z,12.20
2022-09-02T12:01:25.778Z,12.07
2022-09-02T12:04:58.867Z,11.60
2022-09-02T12:07:13.823Z,11.52
2022-09-02T12:12:36.032Z,12.02
2022-09-02T12:15:06.312Z,12.00
2022-09-02T12:17:40.077Z,11.48
2022-09-02T12:20:12.510Z,11.80
2022-09-02T12:22:40.921Z,10.88
2022-09-02T12:25:48.306Z,12.18
2022-09-02T12:28:27.676Z,11.23
2022-09-02T12:31:08.751Z,11.07
2022-09-02T12:33:41.797Z,12.15
2022-09-02T12:36:09.963Z,11.10
2022-09-02T12:38:41.875Z,11.55
2022-09-02T12:41:23.060Z,11.18
2022-09-02T12:44:02.427Z,11.25
2022-09-02T12:46:35.348Z,11.73
2022-09-02T12:49:28.909Z,12.00
2022-09-02T12:52:05.178Z,11.30
2022-09-02T12:54:41.563Z,11.40
2022-09-02T12:57:10.250Z,11.00
2022-09-02T12:59:41.325Z,11.25
2022-09-02T13:02:13.932Z,10.93
2022-09-02T13:04:52.362Z,11.70
2022-09-02T13:07:24.976Z,11.30
2022-09-02T13:10:23.318Z,11.68
2022-09-02T13:13:08.295Z,11.25
2022-09-02T13:15:55.083Z,10.93
2022-09-02T13:19:04.990Z,11.52
2022-09-02T13:21:57.128Z,11.75
2022-09-02T13:24:51.573Z,11.80
2022-09-02T13:27:45.119Z,11.48
2022-09-02T13:30:30.123Z,11.98
2022-09-02T13:33:08.545Z,11.50
2022-09-02T13:35:40.862Z,11.00
2022-09-02T13:38:16.441Z,11.80
2022-09-02T13:40:46.264Z,11.73
2022-09-02T13:43:13.321Z,11.30
2022-09-02T13:45:40.412Z,10.98
2022-09-02T13:48:10.378Z,10.73
2022-09-02T13:50:43.831Z,11.18
2022-09-02T13:53:45.466Z,10.77
2022-09-02T13:56:08.024Z,10.68
2022-09-02T13:58:46.039Z,10.90
2022-09-02T14:01:33.156Z,11.20
2022-09-02T14:04:09.244Z,10.10
2022-09-02T14:06:44.626Z,10.32
2022-09-02T14:09:21.208Z,9.77
2022-09-02T14:11:49.599Z,10.65
2022-09-02T14:14:19.868Z,10.20
2022-09-02T14:16:46.781Z,10.23
2022-09-02T14:19:16.572Z,9.80
2022-09-02T14:22:02.460Z,10.00
2022-09-02T14:24:37.053Z,9.82
2022-09-02T14:27:04.289Z,9.85
2022-09-02T14:29:32.173Z,10.30
2022-09-02T14:32:13.642Z,10.25
2022-09-02T14:34:43.066Z,10.15
2022-09-02T14:37:24.243Z,9.70
2022-09-02T14:40:11.973Z,10.57
2022-09-02T14:42:46.266Z,9.93
2022-09-02T14:45:13.559Z,10.57
2022-09-02T14:47:41.693Z,10.98
2022-09-02T14:50:17.521Z,10.73
2022-09-02T14:52:50.514Z,9.63
2022-09-02T14:55:39.025Z,10.02
2022-09-02T14:58:05.946Z,9.55
2022-09-02T15:00:34.687Z,9.95
2022-09-02T15:03:01.841Z,9.35
2022-09-02T15:05:29.479Z,9.82
2022-09-02T15:07:56.891Z,9.57
2022-09-02T15:10:24.084Z,9.15
2022-09-02T15:12:57.111Z,9.82
2022-09-02T15:15:24.699Z,9.40
2022-09-02T15:17:51.590Z,9.13
2022-09-02T15:20:18.817Z,9.15
2022-09-02T15:22:45.663Z,9.05
2022-09-02T15:25:12.776Z,9.05
2022-09-02T15:27:39.789Z,8.82
2022-09-02T15:30:10.005Z,8.82
2022-09-02T15:32:37.846Z,9.20
2022-09-02T15:35:08.386Z,8.80
2022-09-02T15:37:37.782Z,9.18
2022-09-02T15:40:09.147Z,8.68
2022-09-02T15:42:37.516Z,8.40
2022-09-02T15:45:06.208Z,8.32
2022-09-02T15:47:35.751Z,8.43
2022-09-02T15:50:02.696Z,8.82
2022-09-02T15:52:29.525Z,8.60
2022-09-02T15:54:56.722Z,8.60
2022-09-02T15:57:23.533Z,9.50
2022-09-02T15:59:51.413Z,9.02
2022-09-02T16:02:18.565Z,8.23
2022-09-02T16:04:45.477Z,8.63
2022-09-02T16:07:12.954Z,8.93
2022-09-02T16:09:43.904Z,8.48
2022-09-02T16:12:11.157Z,8.23
2022-09-02T16:14:38.018Z,8.35
2022-09-02T16:17:05.069Z,9.05
2022-09-02T16:19:32.029Z,8.35
2022-09-02T16:21:59.330Z,8.63
2022-09-02T16:24:26.345Z,8.60
2022-09-02T16:26:53.224Z,8.65
2022-09-02T16:29:20.872Z,8.07
2022-09-02T16:34:36.018Z,8.05
2022-09-02T16:37:02.790Z,8.50
2022-09-02T16:39:29.628Z,8.57
2022-09-02T16:41:57.124Z,8.45
2022-09-02T16:44:25.599Z,8.80
2022-09-02T16:46:53.276Z,8.18
2022-09-02T16:49:22.192Z,8.85
2022-09-02T16:51:50.940Z,8.60
2022-09-02T16:54:31.855Z,8.70
2022-09-02T16:57:00.517Z,8.45
2022-09-02T16:59:27.661Z,8.75
2022-09-02T17:01:54.558Z,8.75
2022-09-02T17:04:21.483Z,9.10
2022-09-02T17:06:48.924Z,9.27
2022-09-02T17:09:16.398Z,8.15
2022-09-02T17:11:45.329Z,9.18
2022-09-02T17:14:16.057Z,9.07
2022-09-02T17:16:51.449Z,9.07
2022-09-02T17:19:25.159Z,8.90
2022-09-02T17:21:55.271Z,8.25
2022-09-02T17:24:25.048Z,8.48
2022-09-02T17:26:56.078Z,8.30
2022-09-02T17:29:47.900Z,8.77
2022-09-02T17:32:12.370Z,8.13
2022-09-02T17:34:39.322Z,7.95
2022-09-02T17:37:06.263Z,8.63
2022-09-02T17:39:35.991Z,7.75
2022-09-02T17:42:06.397Z,7.90
2022-09-02T17:44:38.667Z,8.23
2022-09-02T17:47:10.357Z,8.30
2022-09-02T17:49:41.608Z,8.38
2022-09-02T17:52:09.264Z,7.60
2022-09-02T17:54:37.312Z,7.95
2022-09-02T17:57:20.316Z,8.10
2022-09-02T18:00:08.738Z,8.05
2022-09-02T18:02:41.214Z,7.28
2022-09-02T18:05:15.598Z,7.53
2022-09-02T18:08:01.070Z,7.70
2022-09-02T18:10:58.290Z,7.22
2022-09-02T18:13:29.817Z,7.38
2022-09-02T18:16:23.254Z,6.88
2022-09-02T18:19:19.630Z,7.15
2022-09-02T18:22:06.373Z,7.05
2022-09-02T18:24:51.731Z,7.65
2022-09-02T18:27:50.780Z,8.13
2022-09-02T18:30:35.086Z,8.07
2022-09-02T18:33:23.541Z,7.82
2022-09-02T18:36:22.717Z,7.85
2022-09-02T18:39:04.813Z,7.90
2022-09-02T18:42:08.624Z,7.88
2022-09-02T18:45:02.935Z,7.93
2022-09-02T18:47:49.633Z,7.30
2022-09-02T18:50:45.296Z,8.40
2022-09-02T18:53:14.759Z,7.50
2022-09-02T18:55:43.840Z,7.30
2022-09-02T18:58:29.457Z,8.18
2022-09-02T19:01:02.420Z,7.88
2022-09-02T19:03:35.457Z,7.85
2022-09-02T19:06:06.436Z,7.88
2022-09-02T19:08:34.134Z,7.80
2022-09-02T19:11:14.248Z,8.02
2022-09-02T19:13:51.789Z,8.23
2022-09-02T19:16:21.435Z,7.75
2022-09-02T19:18:49.357Z,7.88
2022-09-02T19:21:30.039Z,7.80
2022-09-02T19:23:57.070Z,7.75
2022-09-02T19:26:24.334Z,7.70
2022-09-02T19:28:52.823Z,8.05
2022-09-02T19:31:22.915Z,8.35
2022-09-02T19:33:52.869Z,8.32
2022-09-02T19:36:31.260Z,7.78
2022-09-02T19:38:59.961Z,8.65
2022-09-02T19:41:27.556Z,7.97
2022-09-02T19:43:54.627Z,7.70
2022-09-02T19:47:04.130Z,8.38
2022-09-02T19:49:08.943Z,8.63
2022-09-02T19:51:36.370Z,8.10
2022-09-02T19:54:04.588Z,8.30
2022-09-02T19:56:32.588Z,8.82
2022-09-02T19:59:03.518Z,7.93
2022-09-02T20:01:33.335Z,8.18
2022-09-02T20:04:00.207Z,7.75
2022-09-02T20:06:27.224Z,8.02
2022-09-02T20:08:54.172Z,8.25
2022-09-02T20:11:21.033Z,7.78
2022-09-02T20:13:49.245Z,8.18
2022-09-02T20:16:26.982Z,7.57
2022-09-02T20:18:54.136Z,8.63
2022-09-02T20:21:27.495Z,7.55
2022-09-02T20:23:58.347Z,7.63
2022-09-02T20:26:40.831Z,7.65
2022-09-02T20:29:38.976Z,7.70
2022-09-02T20:32:30.053Z,7.40
2022-09-02T20:35:10.420Z,8.18
2022-09-02T20:37:50.783Z,7.40
2022-09-02T20:40:35.293Z,7.93
2022-09-02T20:43:20.142Z,7.63
2022-09-02T20:46:14.632Z,7.80
2022-09-02T20:49:01.374Z,8.10
2022-09-02T20:51:44.666Z,7.78
2022-09-02T20:54:21.326Z,7.82
2022-09-02T20:57:01.858Z,7.90
2022-09-02T20:59:51.920Z,7.70
2022-09-02T21:02:24.018Z,8.23
2022-09-02T21:05:00.726Z,7.72
2022-09-02T21:07:42.773Z,7.72
2022-09-02T21:10:17.524Z,7.93
2022-09-02T21:12:52.597Z,7.95
2022-09-02T21:15:30.259Z,8.38
2022-09-02T21:18:01.025Z,8.07
2022-09-02T21:20:43.868Z,7.78
2022-09-02T21:23:24.140Z,7.93
2022-09-02T21:25:57.284Z,8.05
2022-09-02T21:28:48.512Z,8.55
2022-09-02T21:31:30.955Z,8.18
2022-09-02T21:34:05.121Z,7.93
2022-09-02T21:36:33.613Z,7.88
2022-09-02T21:39:08.041Z,8.30
2022-09-02T21:41:39.265Z,7.95
2022-09-02T21:44:18.431Z,8.30
2022-09-02T21:47:13.306Z,7.55
2022-09-02T21:49:56.675Z,7.72
2022-09-02T21:52:31.683Z,8.18
2022-09-02T21:55:42.837Z,7.95
2022-09-02T21:58:21.898Z,7.90
2022-09-02T22:01:04.101Z,7.50
2022-09-02T22:03:42.128Z,8.48
2022-09-02T22:06:18.328Z,8.15
2022-09-02T22:08:59.228Z,8.13
2022-09-02T22:11:35.748Z,7.28
2022-09-02T22:14:49.153Z,7.65
2022-09-02T22:17:22.725Z,7.60
2022-09-02T22:19:57.750Z,7.50
2022-09-02T22:22:30.399Z,7.50
2022-09-02T22:24:58.071Z,8.05
2022-09-02T22:27:29.539Z,7.80
2022-09-02T22:29:59.867Z,8.70
2022-09-02T22:32:31.854Z,8.10
2022-09-02T22:35:09.812Z,8.50
2022-09-02T22:37:52.246Z,8.80
2022-09-02T22:40:22.959Z,8.90
2022-09-02T22:42:57.198Z,9.27
2022-09-02T22:45:57.321Z,8.40
2022-09-02T22:48:51.794Z,8.80
2022-09-02T22:52:02.970Z,8.27
2022-09-02T22:54:32.091Z,8.25
2022-09-02T22:57:19.465Z,9.18
2022-09-02T23:00:09.653Z,8.70
2022-09-02T23:02:55.301Z,8.95
2022-09-02T23:05:46.868Z,9.35
2022-09-02T23:08:17.872Z,9.10
2022-09-02T23:11:11.621Z,9.10
2022-09-02T23:14:09.050Z,8.70
2022-09-02T23:17:19.413Z,9.30
2022-09-02T23:19:49.951Z,8.93
2022-09-02T23:22:19.201Z,9.18
2022-09-02T23:25:01.510Z,9.20
2022-09-02T23:27:44.114Z,9.25
2022-09-02T23:30:12.175Z,9.02
2022-09-02T23:33:25.791Z,9.40
2022-09-02T23:35:59.964Z,9.52
2022-09-02T23:38:46.930Z,9.00
2022-09-02T23:41:14.315Z,8.75
2022-09-02T23:43:43.517Z,9.07
2022-09-02T23:46:31.934Z,8.80
2022-09-02T23:49:10.837Z,9.18
2022-09-02T23:52:05.833Z,9.07
2022-09-02T23:54:59.151Z,8.95
2022-09-02T23:57:34.597Z,9.90
